Time;durP1;ratioP1;P1;durP2;ratioP2;P2;SDS_P1;SDS_P2;PMS_P1;PMS_P2;Temp;Humidity;BMP_temperature;BMP_pressure;BME280_temperature;BME280_humidity;BME280_pressure;Samples;Min_cycle;Max_cycle;Signal;HPM_P1;HPM_P2
2024/04/25 00:00:31;;;;;;;6.37;2.00;;;5.20;99.90;;;;;;5348613;26;20073;-53
2024/04/25 00:02:57;;;;;;;5.27;2.00;;;5.20;99.90;;;;;;5380429;26;20033;-53
2024/04/25 00:05:23;;;;;;;4.43;2.17;;;5.10;99.90;;;;;;5380257;26;19992;-49
2024/04/25 00:07:49;;;;;;;6.77;2.20;;;5.10;99.90;;;;;;5380254;26;20008;-51
2024/04/25 00:10:15;;;;;;;4.10;2.00;;;5.00;99.90;;;;;;5379321;26;19992;-52
2024/04/25 00:12:42;;;;;;;5.10;2.10;;;5.00;99.90;;;;;;5380238;26;19992;-50
2024/04/25 00:15:08;;;;;;;3.87;1.87;;;5.00;99.90;;;;;;5349214;26;20004;-49
2024/04/25 00:17:34;;;;;;;4.37;1.70;;;5.10;99.90;;;;;;5380088;26;19992;-49
2024/04/25 00:20:00;;;;;;;4.27;1.93;;;5.20;99.90;;;;;;5379338;26;20530;-50
2024/04/25 00:22:26;;;;;;;3.97;1.90;;;5.20;99.90;;;;;;5380348;26;20472;-49
2024/04/25 00:24:52;;;;;;;3.63;1.97;;;5.20;99.90;;;;;;5378753;26;19992;-49
2024/04/25 00:27:18;;;;;;;4.80;1.90;;;5.10;99.90;;;;;;5379972;26;20042;-49
2024/04/25 00:29:44;;;;;;;4.37;2.00;;;5.10;99.90;;;;;;5378999;26;19996;-48
2024/04/25 00:32:10;;;;;;;4.40;1.90;;;5.10;99.90;;;;;;5379848;26;20066;-49
2024/04/25 00:34:36;;;;;;;2.97;1.77;;;5.10;99.90;;;;;;5378910;26;20062;-48
2024/04/25 00:37:02;;;;;;;3.90;1.63;;;5.00;99.90;;;;;;5380003;26;20468;-49
2024/04/25 00:39:28;;;;;;;3.47;1.90;;;5.10;99.90;;;;;;5380029;26;20413;-53
2024/04/25 00:41:54;;;;;;;6.17;2.00;;;5.10;99.90;;;;;;5379964;26;19992;-53
2024/04/25 00:44:20;;;;;;;2.67;1.63;;;5.10;99.90;;;;;;5379648;26;19992;-53
2024/04/25 00:46:48;;;;;;;5.50;1.83;;;5.10;99.90;;;;;;5379778;26;19992;-48
2024/04/25 00:49:15;;;;;;;3.90;1.60;;;5.10;99.90;;;;;;5378739;26;20092;-52
2024/04/25 00:51:43;;;;;;;3.60;1.67;;;5.20;99.90;;;;;;5379538;26;20407;-50
2024/04/25 00:54:09;;;;;;;5.97;1.93;;;5.20;99.90;;;;;;5377589;26;19992;-51
2024/04/25 00:56:38;;;;;;;5.10;1.90;;;5.20;99.90;;;;;;5379858;26;19992;-50
2024/04/25 00:59:07;;;;;;;5.60;1.67;;;5.20;99.90;;;;;;5378524;26;19992;-52
2024/04/25 01:01:35;;;;;;;4.22;2.13;;;5.10;99.90;;;;;;5348606;26;19992;-51
2024/04/25 01:04:03;;;;;;;4.55;2.22;;;5.10;99.90;;;;;;5379328;26;20332;-51
2024/04/25 01:06:31;;;;;;;3.27;1.90;;;5.10;99.90;;;;;;5377420;26;20396;-53
2024/04/25 01:08:57;;;;;;;4.70;2.30;;;5.10;99.90;;;;;;5378576;26;20399;-52
2024/04/25 01:11:23;;;;;;;8.27;2.30;;;5.20;99.90;;;;;;5379317;26;19996;-52
2024/04/25 01:13:49;;;;;;;7.70;2.10;;;5.20;99.90;;;;;;5379097;26;20006;-51
2024/04/25 01:16:15;;;;;;;3.53;1.77;;;5.20;99.90;;;;;;5379088;26;19996;-53
2024/04/25 01:18:41;;;;;;;3.60;1.43;;;5.20;99.90;;;;;;5379049;26;20007;-52
2024/04/25 01:21:07;;;;;;;4.63;1.87;;;5.20;99.90;;;;;;5376976;26;20008;-52
2024/04/25 01:23:39;;;;;;;5.90;1.77;;;5.20;99.90;;;;;;5378846;26;20008;-52
2024/04/25 01:26:10;;;;;;;4.70;2.00;;;5.20;99.90;;;;;;5378842;26;20012;-53
2024/04/25 01:28:37;;;;;;;6.10;1.77;;;5.20;99.90;;;;;;5378987;26;20015;-49
2024/04/25 01:31:04;;;;;;;7.63;2.50;;;5.20;99.90;;;;;;5378790;26;20069;-49
2024/04/25 01:33:34;;;;;;;5.80;2.50;;;5.20;99.90;;;;;;5382504;26;20014;-52
2024/04/25 01:36:00;;;;;;;4.97;2.00;;;5.20;99.90;;;;;;5382661;26;20070;-52
2024/04/25 01:38:26;;;;;;;3.67;2.00;;;5.20;99.90;;;;;;5381270;26;19992;-53
2024/04/25 01:40:52;;;;;;;5.93;3.30;;;5.20;99.90;;;;;;5380486;26;20030;-52
2024/04/25 01:43:18;;;;;;;6.73;2.20;;;5.20;99.90;;;;;;5351407;26;19996;-52
2024/04/25 01:45:44;;;;;;;3.33;1.67;;;5.20;99.90;;;;;;5382310;26;20530;-52
2024/04/25 01:48:10;;;;;;;5.00;1.97;;;5.10;99.90;;;;;;5382243;26;20004;-51
2024/04/25 01:50:36;;;;;;;4.23;1.90;;;5.10;99.90;;;;;;5350264;26;19996;-53
2024/04/25 01:53:02;;;;;;;4.50;2.10;;;5.00;99.90;;;;;;5382343;26;20008;-52
2024/04/25 01:55:28;;;;;;;4.70;2.00;;;5.00;99.90;;;;;;5351162;26;20066;-52
2024/04/25 01:57:54;;;;;;;5.30;2.10;;;4.90;99.90;;;;;;5382232;26;20357;-52
2024/04/25 02:00:20;;;;;;;8.40;2.20;;;4.90;99.90;;;;;;5381246;26;20049;-52
2024/04/25 02:02:46;;;;;;;6.83;2.27;;;4.90;99.90;;;;;;5381964;26;19996;-50
2024/04/25 02:05:12;;;;;;;5.93;2.27;;;4.90;99.90;;;;;;5381128;26;19996;-48
2024/04/25 02:07:38;;;;;;;5.07;2.50;;;5.00;99.90;;;;;;5382512;26;19996;-49
2024/04/25 02:10:04;;;;;;;4.93;2.13;;;5.00;99.90;;;;;;5381564;26;20069;-48
2024/04/25 02:12:30;;;;;;;8.03;2.40;;;5.10;99.90;;;;;;5382094;26;19996;-48
2024/04/25 02:14:57;;;;;;;9.57;3.20;;;5.10;99.90;;;;;;5381648;26;20073;-48
2024/04/25 02:17:23;;;;;;;9.80;3.87;;;5.10;99.90;;;;;;5381958;26;20234;-48
2024/04/25 02:19:50;;;;;;;5.33;2.63;;;5.10;99.90;;;;;;5379827;26;19992;-48
2024/04/25 02:25:16;;;;;;;5.30;2.80;;;5.10;99.90;;;;;;5381903;26;20453;-48
2024/04/25 02:27:46;;;;;;;6.63;2.97;;;5.10;99.90;;;;;;5381834;26;20000;-48
2024/04/25 02:30:12;;;;;;;8.38;3.03;;;5.10;99.90;;;;;;5381141;26;19996;-49
2024/04/25 02:32:41;;;;;;;8.23;3.50;;;5.00;99.90;;;;;;5381594;26;19996;-52
2024/04/25 02:35:08;;;;;;;9.50;3.80;;;5.00;99.90;;;;;;5381474;26;20077;-52
2024/04/25 02:37:34;;;;;;;8.20;3.87;;;5.00;99.90;;;;;;5381431;26;20061;-50
2024/04/25 02:40:00;;;;;;;9.53;4.40;;;5.10;99.90;;;;;;5379763;26;20061;-52
2024/04/25 02:42:26;;;;;;;8.53;4.00;;;5.10;99.90;;;;;;5381711;26;20353;-48
2024/04/25 02:44:52;;;;;;;6.70;3.73;;;5.00;99.90;;;;;;5381454;26;19992;-49
2024/04/25 02:47:18;;;;;;;9.67;4.13;;;5.00;99.90;;;;;;5381490;26;20326;-48
2024/04/25 02:49:44;;;;;;;7.77;4.37;;;4.90;99.90;;;;;;5379578;26;20003;-48
2024/04/25 02:52:10;;;;;;;8.60;4.40;;;5.00;99.90;;;;;;5381340;26;20321;-49
2024/04/25 02:54:36;;;;;;;13.63;4.40;;;5.00;99.90;;;;;;5380052;26;20042;-50
2024/04/25 02:57:02;;;;;;;12.50;4.37;;;4.90;99.90;;;;;;5381119;26;20042;-49
2024/04/25 02:59:28;;;;;;;10.37;4.30;;;4.90;99.90;;;;;;5380324;26;19996;-48
2024/04/25 03:01:54;;;;;;;8.93;4.23;;;4.80;99.90;;;;;;5381461;26;20003;-48
2024/04/25 03:04:20;;;;;;;9.87;4.13;;;4.80;99.90;;;;;;5381273;26;20517;-48
2024/04/25 03:06:46;;;;;;;8.47;4.40;;;4.70;99.90;;;;;;5381126;26;20453;-51
2024/04/25 03:09:12;;;;;;;8.57;4.33;;;4.70;99.90;;;;;;5380370;26;20046;-48
2024/04/25 03:11:38;;;;;;;10.30;4.50;;;4.80;99.90;;;;;;5380493;26;20004;-48
2024/04/25 03:14:04;;;;;;;11.53;4.40;;;4.80;99.90;;;;;;5381465;26;19996;-48
2024/04/25 03:16:30;;;;;;;11.80;5.30;;;4.70;99.90;;;;;;5381056;26;20020;-48
2024/04/25 03:18:56;;;;;;;11.37;3.77;;;4.70;99.90;;;;;;5380250;26;19992;-48
2024/04/25 03:21:23;;;;;;;11.63;4.50;;;4.70;99.90;;;;;;5379747;26;20329;-48
2024/04/25 03:23:49;;;;;;;8.83;4.27;;;4.60;99.90;;;;;;5380990;26;20003;-49
2024/04/25 03:26:15;;;;;;;9.07;3.57;;;4.50;99.90;;;;;;5380952;26;19993;-48
2024/04/25 03:28:41;;;;;;;12.27;4.07;;;4.60;99.90;;;;;;5380848;26;20426;-48
2024/04/25 03:31:07;;;;;;;13.37;3.80;;;4.50;99.90;;;;;;5380295;26;20035;-48
2024/04/25 03:33:33;;;;;;;7.87;3.43;;;4.50;99.90;;;;;;5380659;26;19995;-49
2024/04/25 03:35:59;;;;;;;12.33;4.10;;;4.40;99.90;;;;;;5380579;26;20062;-48
2024/04/25 03:38:25;;;;;;;11.40;3.60;;;4.30;99.90;;;;;;5380614;26;19996;-50
2024/04/25 03:40:51;;;;;;;13.77;4.43;;;4.30;99.90;;;;;;5379944;26;19992;-50
2024/04/25 03:43:17;;;;;;;9.37;3.90;;;4.20;99.90;;;;;;5380888;26;20488;-49
2024/04/25 03:45:43;;;;;;;9.87;4.00;;;4.20;99.90;;;;;;5380595;26;19988;-51
2024/04/25 03:48:09;;;;;;;8.53;3.60;;;4.30;99.90;;;;;;5379494;26;20003;-51
2024/04/25 03:50:35;;;;;;;8.03;3.40;;;4.30;99.90;;;;;;5379649;26;19996;-52
2024/04/25 03:53:01;;;;;;;16.77;4.63;;;4.20;99.90;;;;;;5380426;26;20069;-49
2024/04/25 03:55:27;;;;;;;13.97;3.97;;;4.10;99.90;;;;;;5379899;26;20010;-52
2024/04/25 03:57:54;;;;;;;11.63;3.57;;;4.10;99.90;;;;;;5380618;26;20401;-52
2024/04/25 04:00:20;;;;;;;9.77;3.37;;;4.10;99.90;;;;;;5379578;26;19992;-52
2024/04/25 04:02:46;;;;;;;10.77;3.37;;;4.00;99.90;;;;;;5379188;26;20070;-52
2024/04/25 04:05:14;;;;;;;8.50;3.23;;;4.00;99.90;;;;;;5380245;26;20000;-52
2024/04/25 04:07:42;;;;;;;8.80;3.50;;;4.00;99.90;;;;;;5380268;26;20306;-52
2024/04/25 04:10:08;;;;;;;15.03;4.17;;;4.00;99.90;;;;;;5379212;26;19996;-51
2024/04/25 04:12:35;;;;;;;9.20;3.83;;;4.00;99.90;;;;;;5349325;26;20003;-48
2024/04/25 04:15:01;;;;;;;9.50;3.47;;;4.00;99.90;;;;;;5380139;26;20011;-48
2024/04/25 04:17:27;;;;;;;9.33;3.93;;;4.00;99.90;;;;;;5380196;26;19992;-48
2024/04/25 04:19:53;;;;;;;10.53;3.63;;;4.00;99.90;;;;;;5379668;26;20358;-52
2024/04/25 04:22:19;;;;;;;13.47;3.63;;;4.00;99.90;;;;;;5380132;26;19992;-51
2024/04/25 04:24:45;;;;;;;12.73;3.83;;;4.10;99.90;;;;;;5349196;26;20008;-52
2024/04/25 04:27:11;;;;;;;11.33;3.40;;;4.20;99.90;;;;;;5379947;26;20024;-51
2024/04/25 04:29:37;;;;;;;13.80;3.87;;;4.20;99.90;;;;;;5379231;26;19988;-50
2024/04/25 04:32:04;;;;;;;10.30;3.77;;;4.30;99.90;;;;;;5380135;26;20065;-49
2024/04/25 04:34:30;;;;;;;16.30;3.90;;;4.30;99.90;;;;;;5379874;26;20066;-50
2024/04/25 04:36:56;;;;;;;10.93;4.13;;;4.40;99.90;;;;;;5379765;26;19993;-51
2024/04/25 04:39:22;;;;;;;8.47;3.47;;;4.40;99.90;;;;;;5379042;26;19988;-49
2024/04/25 04:41:48;;;;;;;9.80;3.10;;;4.40;99.90;;;;;;5379780;26;19993;-47
2024/04/25 04:44:14;;;;;;;13.43;3.63;;;4.40;99.90;;;;;;5379908;26;19993;-48
2024/04/25 04:46:41;;;;;;;11.07;3.90;;;4.40;99.90;;;;;;5379794;26;20065;-52
2024/04/25 04:49:07;;;;;;;11.00;3.37;;;4.50;99.90;;;;;;5377404;26;19996;-49
2024/04/25 04:51:33;;;;;;;11.30;3.53;;;4.50;99.90;;;;;;5379611;26;19996;-51
2024/04/25 04:53:59;;;;;;;10.23;3.80;;;4.50;99.90;;;;;;5380783;26;20407;-48
2024/04/25 04:56:25;;;;;;;10.67;3.20;;;4.50;99.90;;;;;;5379470;26;19988;-52
2024/04/25 04:58:51;;;;;;;9.03;3.20;;;4.40;99.90;;;;;;5379699;26;20388;-51
2024/04/25 05:01:17;;;;;;;11.73;3.63;;;4.40;99.90;;;;;;5347874;26;20336;-52
2024/04/25 05:03:43;;;;;;;12.87;3.37;;;4.50;99.90;;;;;;5379306;26;20078;-51
2024/04/25 05:06:09;;;;;;;13.47;4.00;;;4.50;99.90;;;;;;5380173;26;20003;-52
2024/04/25 05:08:36;;;;;;;14.83;3.47;;;4.50;99.90;;;;;;5381907;26;19992;-52
2024/04/25 05:11:02;;;;;;;10.47;3.80;;;4.50;99.90;;;;;;5351237;26;20541;-52
2024/04/25 05:13:28;;;;;;;8.80;3.17;;;4.50;99.90;;;;;;5383558;26;19993;-51
2024/04/25 05:15:54;;;;;;;9.13;2.90;;;4.50;99.90;;;;;;5381581;26;19992;-52
2024/04/25 05:18:20;;;;;;;9.17;2.80;;;4.60;99.90;;;;;;5383017;26;20074;-51
2024/04/25 05:20:46;;;;;;;7.03;3.00;;;4.60;99.90;;;;;;5382013;26;19992;-50
2024/04/25 05:23:13;;;;;;;9.93;3.40;;;4.70;99.90;;;;;;5382566;26;19992;-53
2024/04/25 05:25:39;;;;;;;9.70;3.17;;;4.80;99.90;;;;;;5382550;26;20036;-51
2024/04/25 05:28:05;;;;;;;6.03;2.80;;;4.90;99.90;;;;;;5382588;26;20008;-52
2024/04/25 05:30:31;;;;;;;13.33;3.40;;;5.00;99.90;;;;;;5381710;26;20000;-52
2024/04/25 05:32:58;;;;;;;10.00;3.07;;;5.00;99.90;;;;;;5382475;26;19988;-52
2024/04/25 05:35:24;;;;;;;10.47;3.40;;;5.00;99.90;;;;;;5382373;26;20003;-53
2024/04/25 05:37:50;;;;;;;11.27;3.07;;;5.10;99.90;;;;;;5382501;26;20069;-52
2024/04/25 05:40:16;;;;;;;7.90;2.63;;;5.20;99.90;;;;;;5381745;26;20445;-52
2024/04/25 05:42:44;;;;;;;8.60;3.00;;;5.40;99.90;;;;;;5351763;26;20047;-52
2024/04/25 05:45:10;;;;;;;7.50;3.70;;;5.60;99.90;;;;;;5381979;26;20069;-52
2024/04/25 05:47:36;;;;;;;7.67;2.57;;;5.70;99.90;;;;;;5382429;26;20000;-53
2024/04/25 05:50:03;;;;;;;8.03;2.70;;;5.80;99.90;;;;;;5381192;26;19988;-52
2024/04/25 05:52:29;;;;;;;6.17;2.90;;;5.80;99.90;;;;;;5380997;26;20472;-52
2024/04/25 05:54:55;;;;;;;8.07;2.27;;;5.80;99.90;;;;;;5381991;26;20008;-52
2024/04/25 05:57:21;;;;;;;7.03;2.63;;;5.90;99.90;;;;;;5380870;26;20359;-52
2024/04/25 05:59:47;;;;;;;6.03;2.70;;;5.90;99.90;;;;;;5381593;26;20514;-52
2024/04/25 06:02:13;;;;;;;12.10;2.63;;;6.00;99.90;;;;;;5381357;26;19996;-52
2024/04/25 06:04:39;;;;;;;6.47;2.10;;;6.00;99.90;;;;;;5381801;26;20066;-52
2024/04/25 06:07:06;;;;;;;6.77;2.37;;;5.90;99.90;;;;;;5382122;26;20337;-52
2024/04/25 06:09:32;;;;;;;7.33;2.40;;;5.90;99.90;;;;;;5380604;26;20441;-49
2024/04/25 06:11:58;;;;;;;7.23;2.43;;;6.00;99.90;;;;;;5381814;26;20003;-48
2024/04/25 06:14:24;;;;;;;6.97;2.50;;;6.00;99.90;;;;;;5382012;26;19996;-49
2024/04/25 06:16:50;;;;;;;8.87;2.53;;;6.00;99.90;;;;;;5381464;26;20089;-49
2024/04/25 06:19:16;;;;;;;6.00;2.20;;;6.20;99.90;;;;;;5381020;26;20429;-51
2024/04/25 06:21:42;;;;;;;8.50;2.50;;;6.30;99.90;;;;;;5382102;26;20519;-52
2024/04/25 06:24:09;;;;;;;7.73;2.40;;;6.60;99.90;;;;;;5381814;26;20066;-52
2024/04/25 06:26:35;;;;;;;10.63;2.90;;;6.60;99.90;;;;;;5351220;26;20419;-49
2024/04/25 06:29:01;;;;;;;8.43;2.63;;;6.80;99.90;;;;;;5380697;26;20487;-50
2024/04/25 06:31:28;;;;;;;8.67;2.50;;;6.90;99.90;;;;;;5381482;26;19992;-51
2024/04/25 06:33:59;;;;;;;15.93;3.17;;;7.00;99.90;;;;;;5381696;26;20004;-52
2024/04/25 06:36:25;;;;;;;8.33;2.73;;;7.10;99.90;;;;;;5381664;26;20003;-49
2024/04/25 06:38:52;;;;;;;8.53;2.43;;;7.00;99.90;;;;;;5381628;26;20066;-53
2024/04/25 06:41:18;;;;;;;11.10;2.90;;;7.10;99.90;;;;;;5380672;26;19992;-51
2024/04/25 06:43:44;;;;;;;7.83;2.60;;;7.10;99.90;;;;;;5381385;26;20074;-51
2024/04/25 06:46:10;;;;;;;10.80;3.00;;;7.10;99.90;;;;;;5381532;26;20008;-50
2024/04/25 06:48:36;;;;;;;12.40;3.80;;;7.10;99.90;;;;;;5381393;26;20046;-53
2024/04/25 06:51:03;;;;;;;9.87;3.43;;;7.00;99.90;;;;;;5380769;26;20314;-53
2024/04/25 06:53:29;;;;;;;10.80;3.27;;;6.80;99.90;;;;;;5381663;26;20384;-49
2024/04/25 06:55:55;;;;;;;10.83;3.57;;;6.80;99.90;;;;;;5381417;26;20518;-48
2024/04/25 06:58:21;;;;;;;10.80;3.70;;;6.70;99.90;;;;;;5381403;26;20007;-49
2024/04/25 07:00:47;;;;;;;10.63;4.17;;;6.70;99.90;;;;;;5380405;26;20445;-49
2024/04/25 07:03:14;;;;;;;10.53;4.17;;;6.80;99.90;;;;;;5381307;26;20066;-53
2024/04/25 07:05:40;;;;;;;10.30;4.50;;;6.90;99.90;;;;;;5380606;26;20004;-53
2024/04/25 07:08:06;;;;;;;11.37;4.97;;;6.80;99.90;;;;;;5381218;26;20449;-52
2024/04/25 07:10:32;;;;;;;13.17;5.83;;;6.90;99.90;;;;;;5380692;26;20008;-53
2024/04/25 07:12:58;;;;;;;11.87;5.77;;;6.80;99.90;;;;;;5381018;26;19996;-52
2024/04/25 07:15:26;;;;;;;11.90;6.57;;;6.80;99.90;;;;;;5380808;26;20070;-48
2024/04/25 07:17:58;;;;;;;11.37;6.47;;;6.70;99.90;;;;;;5380688;26;20000;-53
2024/04/25 07:20:25;;;;;;;20.67;6.60;;;6.70;99.90;;;;;;5380236;26;20075;-48
2024/04/25 07:22:51;;;;;;;15.93;6.87;;;6.90;99.90;;;;;;5381221;26;20315;-49
2024/04/25 07:25:17;;;;;;;15.43;7.93;;;7.10;99.90;;;;;;5380895;26;20042;-51
2024/04/25 07:27:43;;;;;;;15.73;7.60;;;7.30;99.90;;;;;;5380921;26;20333;-53
2024/04/25 07:30:10;;;;;;;19.07;8.00;;;7.40;99.90;;;;;;5378859;26;19996;-52
2024/04/25 07:32:36;;;;;;;18.27;7.97;;;7.50;99.90;;;;;;5380858;26;20002;-53
2024/04/25 07:35:03;;;;;;;18.23;8.90;;;7.40;99.90;;;;;;5349822;26;20004;-51
2024/04/25 07:37:37;;;;;;;14.73;7.67;;;7.50;99.90;;;;;;5380557;26;20000;-53
2024/04/25 07:40:04;;;;;;;15.57;8.30;;;7.70;99.90;;;;;;5380201;26;20346;-52
2024/04/25 07:42:30;;;;;;;14.67;9.23;;;7.80;99.90;;;;;;5379216;26;20020;-53
2024/04/25 07:44:57;;;;;;;16.13;8.97;;;7.80;99.90;;;;;;5381676;26;20069;-48
2024/04/25 07:47:23;;;;;;;20.00;9.30;;;7.90;99.90;;;;;;5380721;26;19992;-48
2024/04/25 07:49:52;;;;;;;17.17;8.33;;;7.90;99.90;;;;;;5379759;26;20004;-48
2024/04/25 07:52:18;;;;;;;15.83;8.67;;;7.90;99.90;;;;;;5380536;26;20004;-50
2024/04/25 07:54:46;;;;;;;17.77;8.80;;;7.90;99.90;;;;;;5380488;26;19992;-49
2024/04/25 07:57:12;;;;;;;16.83;7.37;;;7.90;99.90;;;;;;5380694;26;20000;-52
2024/04/25 07:59:38;;;;;;;13.47;6.73;;;8.00;99.90;;;;;;5379586;26;19992;-49
2024/04/25 08:02:04;;;;;;;12.50;4.97;;;8.00;99.90;;;;;;5380437;26;20066;-52
2024/04/25 08:04:30;;;;;;;8.33;4.50;;;8.20;99.90;;;;;;5380489;26;19996;-52
2024/04/25 08:06:56;;;;;;;13.03;4.87;;;8.10;99.90;;;;;;5380562;26;20032;-51
2024/04/25 08:09:22;;;;;;;11.40;5.57;;;8.10;99.90;;;;;;5379372;26;20069;-49
2024/04/25 08:11:48;;;;;;;12.20;4.97;;;8.10;99.90;;;;;;5379864;26;20445;-49
2024/04/25 08:14:14;;;;;;;12.23;5.37;;;8.20;99.90;;;;;;5379251;26;20057;-53
2024/04/25 08:16:40;;;;;;;12.87;5.30;;;8.20;99.90;;;;;;5348052;26;20065;-53
2024/04/25 08:19:06;;;;;;;10.13;4.20;;;8.30;99.90;;;;;;5379267;26;20066;-52
2024/04/25 08:21:32;;;;;;;10.20;4.20;;;8.20;99.90;;;;;;5380497;26;19996;-48
2024/04/25 08:23:58;;;;;;;10.07;4.10;;;8.20;99.90;;;;;;5381252;26;19996;-52
2024/04/25 08:26:24;;;;;;;9.83;4.20;;;8.20;99.90;;;;;;5380062;26;19996;-53
2024/04/25 08:28:51;;;;;;;10.80;4.00;;;8.40;99.90;;;;;;5380286;26;20003;-53
2024/04/25 08:31:17;;;;;;;10.03;4.30;;;8.40;99.90;;;;;;5379169;26;20542;-52
2024/04/25 08:33:44;;;;;;;9.00;3.20;;;8.50;99.90;;;;;;5380107;26;20054;-52
2024/04/25 08:36:10;;;;;;;10.47;3.80;;;8.70;99.90;;;;;;5348892;26;20376;-53
2024/04/25 08:38:37;;;;;;;9.13;3.03;;;8.80;99.90;;;;;;5348723;26;19996;-52
2024/04/25 08:41:03;;;;;;;8.07;2.97;;;8.90;99.90;;;;;;5379255;26;19988;-51
2024/04/25 08:43:29;;;;;;;12.87;3.80;;;9.10;99.90;;;;;;5380050;26;20104;-52
2024/04/25 08:45:57;;;;;;;10.37;4.37;;;9.10;99.90;;;;;;5378890;26;19992;-53
2024/04/25 08:48:24;;;;;;;9.90;3.10;;;9.20;99.90;;;;;;5380148;26;20092;-52
2024/04/25 08:50:52;;;;;;;14.50;4.17;;;9.30;99.90;;;;;;5378771;26;20065;-53
2024/04/25 08:53:25;;;;;;;14.10;4.83;;;9.40;99.90;;;;;;5379573;26;19992;-50
2024/04/25 08:55:51;;;;;;;13.70;3.30;;;9.40;99.90;;;;;;5380247;26;20012;-51
2024/04/25 08:58:18;;;;;;;12.40;3.37;;;9.50;99.90;;;;;;5379632;26;20070;-53
2024/04/25 09:00:44;;;;;;;10.63;3.40;;;9.40;99.90;;;;;;5378600;26;20078;-52
2024/04/25 09:03:14;;;;;;;9.90;3.20;;;9.40;99.90;;;;;;5378549;26;19993;-52
2024/04/25 09:05:40;;;;;;;9.60;2.70;;;9.60;99.90;;;;;;5377959;26;19993;-52
2024/04/25 09:08:12;;;;;;;12.87;3.40;;;9.80;99.90;;;;;;5379385;26;19996;-52
2024/04/25 09:10:42;;;;;;;9.07;3.70;;;9.90;99.90;;;;;;5378742;26;20000;-51
2024/04/25 09:13:08;;;;;;;12.70;4.07;;;9.80;99.90;;;;;;5379157;26;20073;-53
2024/04/25 09:15:34;;;;;;;7.67;3.13;;;9.80;99.90;;;;;;5379253;26;19997;-48
2024/04/25 09:18:01;;;;;;;8.80;3.33;;;9.70;99.90;;;;;;5379096;26;20134;-53
2024/04/25 09:20:29;;;;;;;8.90;3.57;;;9.70;99.90;;;;;;5376790;26;19996;-53
2024/04/25 09:22:55;;;;;;;5.83;3.00;;;9.70;99.90;;;;;;5379734;26;20004;-51
2024/04/25 09:25:21;;;;;;;10.80;3.63;;;9.80;99.90;;;;;;5379124;26;19993;-49
2024/04/25 09:27:48;;;;;;;8.50;3.07;;;10.00;99.90;;;;;;5378984;26;20062;-51
2024/04/25 09:30:16;;;;;;;8.27;3.10;;;10.10;99.90;;;;;;5378065;26;20085;-51
2024/04/25 09:32:42;;;;;;;11.68;3.35;;;10.00;99.90;;;;;;5379233;26;20333;-53
2024/04/25 09:35:12;;;;;;;11.07;3.30;;;9.80;99.90;;;;;;5377842;26;19992;-53
2024/04/25 09:37:39;;;;;;;8.60;2.20;;;9.60;99.90;;;;;;5378592;26;20004;-51
2024/04/25 09:40:07;;;;;;;5.93;2.10;;;9.50;99.90;;;;;;5376544;26;19996;-52
2024/04/25 09:42:35;;;;;;;7.03;1.97;;;9.40;99.90;;;;;;5378670;26;20065;-49
2024/04/25 09:45:03;;;;;;;5.83;2.20;;;9.40;99.90;;;;;;5346825;26;20069;-49
2024/04/25 09:47:56;;;;;;;8.00;2.07;;;9.50;99.90;;;;;;5378837;26;20525;-52
2024/04/25 09:50:30;;;;;;;5.63;2.23;;;9.50;99.90;;;;;;5377969;26;19996;-49
2024/04/25 09:53:03;;;;;;;8.43;2.70;;;9.60;99.90;;;;;;5379574;26;19992;-53
2024/04/25 09:55:39;;;;;;;8.83;2.97;;;9.50;99.90;;;;;;5382377;26;19992;-52
2024/04/25 09:58:07;;;;;;;5.77;2.57;;;9.30;99.90;;;;;;5382298;26;20006;-53
2024/04/25 10:00:36;;;;;;;9.07;2.87;;;9.20;99.90;;;;;;5381715;26;20050;-53
2024/04/25 10:03:03;;;;;;;8.43;2.63;;;9.10;99.90;;;;;;5382401;26;20046;-54
2024/04/25 10:05:30;;;;;;;8.47;2.67;;;9.10;99.90;;;;;;5382750;26;20011;-54
2024/04/25 10:07:56;;;;;;;6.40;2.73;;;9.20;99.90;;;;;;5382185;26;19997;-52
2024/04/25 10:10:22;;;;;;;7.97;2.53;;;9.40;99.90;;;;;;5350130;26;20000;-53
2024/04/25 10:12:53;;;;;;;6.30;2.20;;;9.40;99.90;;;;;;5382299;26;20006;-53
2024/04/25 10:15:27;;;;;;;7.97;2.30;;;9.50;99.90;;;;;;5382172;26;20008;-47
2024/04/25 10:17:53;;;;;;;7.93;2.60;;;9.70;99.90;;;;;;5381952;26;20007;-52
2024/04/25 10:20:19;;;;;;;7.37;2.87;;;9.70;99.90;;;;;;5380969;26;20047;-52
2024/04/25 10:23:01;;;;;;;9.40;2.67;;;9.70;99.90;;;;;;5381787;26;20074;-53
2024/04/25 10:25:28;;;;;;;6.00;2.63;;;9.90;99.90;;;;;;5381734;26;20000;-53
2024/04/25 10:28:05;;;;;;;11.17;2.97;;;9.90;99.90;;;;;;5351059;26;20007;-53
2024/04/25 10:30:35;;;;;;;7.40;2.50;;;10.10;99.90;;;;;;5381076;26;19996;-53
2024/04/25 10:33:01;;;;;;;4.00;2.10;;;10.40;99.90;;;;;;5382001;26;20073;-54
2024/04/25 10:35:37;;;;;;;7.30;2.30;;;10.70;99.90;;;;;;5381657;26;19996;-54
2024/04/25 10:38:03;;;;;;;7.57;2.20;;;11.00;99.90;;;;;;5381697;26;20090;-54
2024/04/25 10:40:29;;;;;;;6.73;2.03;;;11.30;99.90;;;;;;5350131;26;20007;-53
2024/04/25 10:42:58;;;;;;;6.20;2.03;;;11.30;99.90;;;;;;5381638;26;20047;-54
2024/04/25 10:45:26;;;;;;;10.50;2.50;;;11.50;99.90;;;;;;5381527;26;20003;-54
2024/04/25 10:47:52;;;;;;;7.87;2.30;;;11.70;99.90;;;;;;5381469;26;20361;-54
2024/04/25 10:50:18;;;;;;;5.63;1.87;;;11.70;99.90;;;;;;5380792;26;20073;-51
2024/04/25 10:52:44;;;;;;;6.27;2.30;;;11.60;99.90;;;;;;5381595;26;20404;-53
2024/04/25 10:55:11;;;;;;;5.63;2.60;;;11.20;99.90;;;;;;5381344;26;20070;-51
2024/04/25 10:57:38;;;;;;;7.17;2.00;;;10.80;99.90;;;;;;5381426;26;20082;-52
2024/04/25 11:00:04;;;;;;;6.83;2.43;;;10.60;99.90;;;;;;5380971;26;20011;-53
2024/04/25 11:02:37;;;;;;;6.83;2.30;;;10.30;99.90;;;;;;5381309;26;20000;-54
2024/04/25 11:05:07;;;;;;;6.07;2.13;;;10.20;99.90;;;;;;5380169;26;20000;-49
2024/04/25 11:07:33;;;;;;;10.43;2.10;;;9.90;99.90;;;;;;5381408;26;20507;-52
2024/04/25 11:09:59;;;;;;;7.27;1.40;;;9.90;99.90;;;;;;5380557;26;20000;-53
2024/04/25 11:12:26;;;;;;;5.67;1.20;;;9.90;99.90;;;;;;5381264;26;20000;-48
2024/04/25 11:14:52;;;;;;;4.03;1.10;;;10.10;99.90;;;;;;5381181;26;20073;-47
2024/04/25 11:17:18;;;;;;;5.97;1.13;;;10.20;99.90;;;;;;5380847;26;20008;-52
2024/04/25 11:19:45;;;;;;;4.17;1.20;;;10.40;99.90;;;;;;5380400;26;20077;-49
2024/04/25 11:22:11;;;;;;;3.40;0.90;;;10.60;99.90;;;;;;5381067;26;20079;-53
2024/04/25 11:24:37;;;;;;;4.43;1.10;;;10.80;99.90;;;;;;5380951;26;20050;-51
2024/04/25 11:27:04;;;;;;;4.43;1.10;;;10.80;99.90;;;;;;5381094;26;20000;-51
2024/04/25 11:29:33;;;;;;;4.37;1.17;;;11.00;99.90;;;;;;5380235;26;20046;-54
2024/04/25 11:32:01;;;;;;;4.93;1.17;;;11.00;99.90;;;;;;5350166;26;20004;-50
2024/04/25 11:34:27;;;;;;;3.03;1.03;;;11.00;99.90;;;;;;5381000;26;20115;-53
2024/04/25 11:37:00;;;;;;;4.53;1.30;;;10.90;99.90;;;;;;5381062;26;20137;-56
2024/04/25 11:39:35;;;;;;;3.17;1.20;;;10.70;99.90;;;;;;5379647;26;20436;-48
2024/04/25 11:42:06;;;;;;;6.27;1.40;;;10.80;99.90;;;;;;5380588;26;20069;-52
2024/04/25 11:44:33;;;;;;;6.00;1.40;;;10.90;99.90;;;;;;5381105;26;20452;-54
2024/04/25 11:47:02;;;;;;;6.43;1.40;;;10.70;99.90;;;;;;5380670;26;20007;-53
2024/04/25 11:49:29;;;;;;;;;;;10.60;99.90;;;;;;5380632;26;20036;-54
2024/04/25 11:51:55;;;;;;;9.73;2.20;;;10.50;99.90;;;;;;5349790;26;19995;-53
2024/04/25 11:54:21;;;;;;;7.90;1.80;;;10.50;99.90;;;;;;5380644;26;20040;-52
2024/04/25 11:56:48;;;;;;;4.40;2.00;;;10.30;99.90;;;;;;5379439;26;20073;-53
2024/04/25 11:59:15;;;;;;;3.87;1.30;;;10.20;99.90;;;;;;5347994;26;20036;-54
2024/04/25 12:01:42;;;;;;;2.93;1.50;;;10.10;99.90;;;;;;5380606;26;20028;-52
2024/04/25 12:04:09;;;;;;;3.20;1.00;;;10.00;99.90;;;;;;5380057;26;20003;-52
2024/04/25 12:06:35;;;;;;;3.47;1.27;;;10.00;99.90;;;;;;5380400;26;20318;-53
2024/04/25 12:09:01;;;;;;;3.67;1.33;;;10.00;99.90;;;;;;5379619;26;19988;-53
2024/04/25 12:11:29;;;;;;;7.20;1.70;;;10.00;99.90;;;;;;5380203;26;20419;-52
2024/04/25 12:13:55;;;;;;;7.43;1.73;;;10.00;99.90;;;;;;5380262;26;20097;-51
2024/04/25 12:16:21;;;;;;;6.67;2.13;;;10.00;99.90;;;;;;5378737;26;20142;-54
2024/04/25 12:18:47;;;;;;;6.60;1.50;;;10.00;99.90;;;;;;5380333;26;20158;-54
2024/04/25 12:21:14;;;;;;;5.70;2.07;;;10.10;99.90;;;;;;5378411;26;19996;-52
2024/04/25 12:23:40;;;;;;;5.50;1.63;;;10.10;99.90;;;;;;5380032;26;20004;-54
2024/04/25 12:26:06;;;;;;;5.03;2.00;;;10.00;99.90;;;;;;5380514;26;20065;-54
2024/04/25 12:28:33;;;;;;;6.77;1.87;;;10.00;99.90;;;;;;5379051;26;20000;-54
2024/04/25 12:30:59;;;;;;;6.90;1.83;;;10.00;99.90;;;;;;5379447;26;20329;-50
2024/04/25 12:33:25;;;;;;;5.20;1.63;;;10.10;99.90;;;;;;5380541;26;20003;-50
2024/04/25 12:35:53;;;;;;;5.17;1.50;;;9.90;99.90;;;;;;5349361;26;19996;-51
2024/04/25 12:38:19;;;;;;;6.40;2.00;;;9.90;99.90;;;;;;5380008;26;19992;-51
2024/04/25 12:40:45;;;;;;;7.00;2.20;;;9.80;99.90;;;;;;5379755;26;19996;-54
2024/04/25 12:43:13;;;;;;;5.73;1.97;;;9.70;99.90;;;;;;5380030;26;20070;-52
2024/04/25 12:45:39;;;;;;;2.10;0.90;;;9.60;99.90;;;;;;5349466;26;20391;-52
2024/04/25 12:48:08;;;;;;;2.63;1.17;;;9.50;97.70;;;;;;5382351;26;20004;-51
2024/04/25 12:50:34;;;;;;;1.97;0.70;;;9.20;97.70;;;;;;5379223;26;19996;-51
2024/04/25 12:53:00;;;;;;;4.10;0.70;;;9.20;97.80;;;;;;5379776;26;20461;-48